sensor_id;sensor_type;location;lat;lon;timestamp;temperature;humidity
59148;DHT22;44930;52.878;6.168;2023-08-06T00:01:31;14.40;99.90
59148;DHT22;44930;52.878;6.168;2023-08-06T00:03:56;14.40;99.90
59148;DHT22;44930;52.878;6.168;2023-08-06T00:06:22;14.40;99.90
59148;DHT22;44930;52.878;6.168;2023-08-06T00:08:47;14.30;99.90
59148;DHT22;44930;52.878;6.168;2023-08-06T00:11:13;14.40;99.90
59148;DHT22;44930;52.878;6.168;2023-08-06T00:13:38;14.20;99.90
59148;DHT22;44930;52.878;6.168;2023-08-06T00:18:37;14.40;99.90
59148;DHT22;44930;52.878;6.168;2023-08-06T00:21:03;14.30;99.90
59148;DHT22;44930;52.878;6.168;2023-08-06T00:23:28;14.30;99.90
59148;DHT22;44930;52.878;6.168;2023-08-06T00:25:54;14.30;99.90
59148;DHT22;44930;52.878;6.168;2023-08-06T00:28:19;14.20;99.90
59148;DHT22;44930;52.878;6.168;2023-08-06T00:30:45;14.30;99.90
59148;DHT22;44930;52.878;6.168;2023-08-06T00:33:10;14.40;99.90
59148;DHT22;44930;52.878;6.168;2023-08-06T00:35:36;14.30;99.90
59148;DHT22;44930;52.878;6.168;2023-08-06T00:38:01;14.30;99.90
59148;DHT22;44930;52.878;6.168;2023-08-06T00:40:27;14.30;99.90
59148;DHT22;44930;52.878;6.168;2023-08-06T00:42:55;14.30;99.90
59148;DHT22;44930;52.878;6.168;2023-08-06T00:45:21;14.40;99.90
59148;DHT22;44930;52.878;6.168;2023-08-06T00:47:47;14.30;99.90
59148;DHT22;44930;52.878;6.168;2023-08-06T00:50:13;14.30;99.90
59148;DHT22;44930;52.878;6.168;2023-08-06T00:52:39;14.20;99.90
59148;DHT22;44930;52.878;6.168;2023-08-06T00:55:05;14.50;99.90
59148;DHT22;44930;52.878;6.168;2023-08-06T00:57:31;14.30;99.90
59148;DHT22;44930;52.878;6.168;2023-08-06T00:59:57;14.40;99.90
59148;DHT22;44930;52.878;6.168;2023-08-06T01:02:23;14.20;99.90
59148;DHT22;44930;52.878;6.168;2023-08-06T01:04:48;14.30;99.90
59148;DHT22;44930;52.878;6.168;2023-08-06T01:07:19;14.30;99.90
59148;DHT22;44930;52.878;6.168;2023-08-06T01:10:10;14.20;99.90
59148;DHT22;44930;52.878;6.168;2023-08-06T01:15:41;14.40;99.90
59148;DHT22;44930;52.878;6.168;2023-08-06T01:18:07;14.20;99.90
59148;DHT22;44930;52.878;6.168;2023-08-06T01:20:33;14.00;99.90
59148;DHT22;44930;52.878;6.168;2023-08-06T01:22:58;14.10;99.90
59148;DHT22;44930;52.878;6.168;2023-08-06T01:25:32;14.20;99.90
59148;DHT22;44930;52.878;6.168;2023-08-06T01:28:07;14.20;99.90
59148;DHT22;44930;52.878;6.168;2023-08-06T01:30:37;14.20;99.90
59148;DHT22;44930;52.878;6.168;2023-08-06T01:33:09;14.20;99.90
59148;DHT22;44930;52.878;6.168;2023-08-06T01:35:38;14.10;99.90
59148;DHT22;44930;52.878;6.168;2023-08-06T01:38:04;14.10;99.90
59148;DHT22;44930;52.878;6.168;2023-08-06T01:40:30;14.40;99.90
59148;DHT22;44930;52.878;6.168;2023-08-06T01:42:55;14.20;99.90
59148;DHT22;44930;52.878;6.168;2023-08-06T01:45:21;14.10;99.90
59148;DHT22;44930;52.878;6.168;2023-08-06T01:47:46;14.20;99.90
59148;DHT22;44930;52.878;6.168;2023-08-06T01:50:12;14.20;99.90
59148;DHT22;44930;52.878;6.168;2023-08-06T01:55:04;14.10;99.90
59148;DHT22;44930;52.878;6.168;2023-08-06T01:57:29;14.30;99.90
59148;DHT22;44930;52.878;6.168;2023-08-06T01:59:55;14.40;99.90
59148;DHT22;44930;52.878;6.168;2023-08-06T02:02:20;14.20;99.90
59148;DHT22;44930;52.878;6.168;2023-08-06T02:04:46;14.20;99.90
59148;DHT22;44930;52.878;6.168;2023-08-06T02:07:11;14.00;99.90
59148;DHT22;44930;52.878;6.168;2023-08-06T02:09:37;14.20;99.90
59148;DHT22;44930;52.878;6.168;2023-08-06T02:12:02;14.20;99.90
59148;DHT22;44930;52.878;6.168;2023-08-06T02:14:28;14.20;99.90
59148;DHT22;44930;52.878;6.168;2023-08-06T02:16:54;14.20;99.90
59148;DHT22;44930;52.878;6.168;2023-08-06T02:19:19;14.20;99.90
59148;DHT22;44930;52.878;6.168;2023-08-06T02:21:45;14.10;99.90
59148;DHT22;44930;52.878;6.168;2023-08-06T02:24:10;14.30;99.90
59148;DHT22;44930;52.878;6.168;2023-08-06T02:26:36;14.20;99.90
59148;DHT22;44930;52.878;6.168;2023-08-06T02:29:02;14.10;99.90
59148;DHT22;44930;52.878;6.168;2023-08-06T02:31:27;14.00;99.90
59148;DHT22;44930;52.878;6.168;2023-08-06T02:36:19;14.10;99.90
59148;DHT22;44930;52.878;6.168;2023-08-06T02:38:44;14.20;99.90
59148;DHT22;44930;52.878;6.168;2023-08-06T02:41:10;14.00;99.90
59148;DHT22;44930;52.878;6.168;2023-08-06T02:43:35;13.80;99.90
59148;DHT22;44930;52.878;6.168;2023-08-06T02:46:01;14.20;99.90
59148;DHT22;44930;52.878;6.168;2023-08-06T02:48:27;14.00;99.90
59148;DHT22;44930;52.878;6.168;2023-08-06T02:50:53;14.00;99.90
59148;DHT22;44930;52.878;6.168;2023-08-06T02:53:22;14.00;99.90
59148;DHT22;44930;52.878;6.168;2023-08-06T02:55:47;13.90;99.90
59148;DHT22;44930;52.878;6.168;2023-08-06T02:58:16;14.10;99.90
59148;DHT22;44930;52.878;6.168;2023-08-06T03:00:43;13.90;99.90
59148;DHT22;44930;52.878;6.168;2023-08-06T03:03:09;13.90;99.90
59148;DHT22;44930;52.878;6.168;2023-08-06T03:05:35;13.90;99.90
59148;DHT22;44930;52.878;6.168;2023-08-06T03:08:00;14.00;99.90
59148;DHT22;44930;52.878;6.168;2023-08-06T03:10:26;13.90;99.90
59148;DHT22;44930;52.878;6.168;2023-08-06T03:12:52;13.90;99.90
59148;DHT22;44930;52.878;6.168;2023-08-06T03:15:17;13.80;99.90
59148;DHT22;44930;52.878;6.168;2023-08-06T03:17:43;13.80;99.90
59148;DHT22;44930;52.878;6.168;2023-08-06T03:20:10;13.90;99.90
59148;DHT22;44930;52.878;6.168;2023-08-06T03:25:01;13.90;99.90
59148;DHT22;44930;52.878;6.168;2023-08-06T03:27:27;14.20;99.90
59148;DHT22;44930;52.878;6.168;2023-08-06T03:29:53;13.80;99.90
59148;DHT22;44930;52.878;6.168;2023-08-06T03:32:18;14.00;99.90
59148;DHT22;44930;52.878;6.168;2023-08-06T03:34:44;13.60;99.90
59148;DHT22;44930;52.878;6.168;2023-08-06T03:37:09;13.80;99.90
59148;DHT22;44930;52.878;6.168;2023-08-06T03:39:35;13.80;99.90
59148;DHT22;44930;52.878;6.168;2023-08-06T03:42:00;13.90;99.90
59148;DHT22;44930;52.878;6.168;2023-08-06T03:44:26;13.80;99.90
59148;DHT22;44930;52.878;6.168;2023-08-06T03:46:53;13.90;99.90
59148;DHT22;44930;52.878;6.168;2023-08-06T03:49:19;14.00;99.90
59148;DHT22;44930;52.878;6.168;2023-08-06T03:51:44;13.70;99.90
59148;DHT22;44930;52.878;6.168;2023-08-06T03:54:10;13.50;99.90
59148;DHT22;44930;52.878;6.168;2023-08-06T03:56:35;13.70;99.90
59148;DHT22;44930;52.878;6.168;2023-08-06T03:59:01;13.70;99.90
59148;DHT22;44930;52.878;6.168;2023-08-06T04:01:26;13.70;99.90
59148;DHT22;44930;52.878;6.168;2023-08-06T04:03:52;13.80;99.90
59148;DHT22;44930;52.878;6.168;2023-08-06T04:08:44;13.70;99.90
59148;DHT22;44930;52.878;6.168;2023-08-06T04:11:09;13.70;99.90
59148;DHT22;44930;52.878;6.168;2023-08-06T04:13:35;13.70;99.90
59148;DHT22;44930;52.878;6.168;2023-08-06T04:16:01;13.60;99.90
59148;DHT22;44930;52.878;6.168;2023-08-06T04:18:27;13.80;99.90
59148;DHT22;44930;52.878;6.168;2023-08-06T04:20:53;13.60;99.90
59148;DHT22;44930;52.878;6.168;2023-08-06T04:23:20;13.70;99.90
59148;DHT22;44930;52.878;6.168;2023-08-06T04:25:46;13.80;99.90
59148;DHT22;44930;52.878;6.168;2023-08-06T04:28:11;13.80;99.90
59148;DHT22;44930;52.878;6.168;2023-08-06T04:30:37;13.80;99.90
59148;DHT22;44930;52.878;6.168;2023-08-06T04:33:03;13.70;99.90
59148;DHT22;44930;52.878;6.168;2023-08-06T04:35:29;14.10;99.90
59148;DHT22;44930;52.878;6.168;2023-08-06T04:37:54;13.80;99.90
59148;DHT22;44930;52.878;6.168;2023-08-06T04:40:20;13.80;99.90
59148;DHT22;44930;52.878;6.168;2023-08-06T04:42:45;13.80;99.90
59148;DHT22;44930;52.878;6.168;2023-08-06T04:45:11;13.80;99.90
59148;DHT22;44930;52.878;6.168;2023-08-06T04:47:36;14.00;99.90
59148;DHT22;44930;52.878;6.168;2023-08-06T04:50:02;13.70;99.90
59148;DHT22;44930;52.878;6.168;2023-08-06T04:52:27;14.00;99.90
59148;DHT22;44930;52.878;6.168;2023-08-06T04:54:54;13.90;99.90
59148;DHT22;44930;52.878;6.168;2023-08-06T04:57:20;14.00;99.90
59148;DHT22;44930;52.878;6.168;2023-08-06T04:59:46;13.90;99.90
59148;DHT22;44930;52.878;6.168;2023-08-06T05:02:11;13.90;99.90
59148;DHT22;44930;52.878;6.168;2023-08-06T05:04:37;13.90;99.90
59148;DHT22;44930;52.878;6.168;2023-08-06T05:07:03;13.90;99.90
59148;DHT22;44930;52.878;6.168;2023-08-06T05:09:29;14.00;99.90
59148;DHT22;44930;52.878;6.168;2023-08-06T05:11:54;14.00;99.90
59148;DHT22;44930;52.878;6.168;2023-08-06T05:14:20;14.00;99.90
59148;DHT22;44930;52.878;6.168;2023-08-06T05:16:45;13.90;99.90
59148;DHT22;44930;52.878;6.168;2023-08-06T05:19:11;14.20;99.90
59148;DHT22;44930;52.878;6.168;2023-08-06T05:21:37;14.00;99.90
59148;DHT22;44930;52.878;6.168;2023-08-06T05:24:02;14.00;99.90
59148;DHT22;44930;52.878;6.168;2023-08-06T05:26:28;14.00;99.90
59148;DHT22;44930;52.878;6.168;2023-08-06T05:28:53;14.10;99.90
59148;DHT22;44930;52.878;6.168;2023-08-06T05:33:45;14.00;99.90
59148;DHT22;44930;52.878;6.168;2023-08-06T05:36:11;14.10;99.90
59148;DHT22;44930;52.878;6.168;2023-08-06T05:38:36;14.10;99.90
59148;DHT22;44930;52.878;6.168;2023-08-06T05:41:02;14.10;99.90
59148;DHT22;44930;52.878;6.168;2023-08-06T05:43:27;14.20;99.90
59148;DHT22;44930;52.878;6.168;2023-08-06T05:45:53;14.20;99.90
59148;DHT22;44930;52.878;6.168;2023-08-06T05:48:18;14.10;99.90
59148;DHT22;44930;52.878;6.168;2023-08-06T05:50:44;14.20;99.90
59148;DHT22;44930;52.878;6.168;2023-08-06T05:53:10;14.10;99.90
59148;DHT22;44930;52.878;6.168;2023-08-06T05:55:35;14.20;99.90
59148;DHT22;44930;52.878;6.168;2023-08-06T05:58:02;14.20;99.90
59148;DHT22;44930;52.878;6.168;2023-08-06T06:00:27;14.20;99.90
59148;DHT22;44930;52.878;6.168;2023-08-06T06:02:53;14.20;99.90
59148;DHT22;44930;52.878;6.168;2023-08-06T06:05:18;14.30;99.90
59148;DHT22;44930;52.878;6.168;2023-08-06T06:07:44;14.50;99.90
59148;DHT22;44930;52.878;6.168;2023-08-06T06:10:10;14.40;99.90
59148;DHT22;44930;52.878;6.168;2023-08-06T06:12:35;14.50;99.90
59148;DHT22;44930;52.878;6.168;2023-08-06T06:15:01;14.40;99.90
59148;DHT22;44930;52.878;6.168;2023-08-06T06:17:27;14.30;99.90
59148;DHT22;44930;52.878;6.168;2023-08-06T06:22:18;14.70;99.90
59148;DHT22;44930;52.878;6.168;2023-08-06T06:24:44;14.50;99.90
59148;DHT22;44930;52.878;6.168;2023-08-06T06:29:35;14.70;99.90
59148;DHT22;44930;52.878;6.168;2023-08-06T06:32:01;14.70;99.90
59148;DHT22;44930;52.878;6.168;2023-08-06T06:34:27;14.80;99.90
59148;DHT22;44930;52.878;6.168;2023-08-06T06:36:52;14.90;99.90
59148;DHT22;44930;52.878;6.168;2023-08-06T06:39:18;14.90;99.90
59148;DHT22;44930;52.878;6.168;2023-08-06T06:41:43;14.90;99.90
59148;DHT22;44930;52.878;6.168;2023-08-06T06:44:09;15.00;99.90
59148;DHT22;44930;52.878;6.168;2023-08-06T06:46:35;15.10;99.90
59148;DHT22;44930;52.878;6.168;2023-08-06T06:49:01;15.00;99.90
59148;DHT22;44930;52.878;6.168;2023-08-06T06:51:26;15.00;99.90
59148;DHT22;44930;52.878;6.168;2023-08-06T06:53:52;15.10;99.90
59148;DHT22;44930;52.878;6.168;2023-08-06T06:56:18;15.10;99.90
59148;DHT22;44930;52.878;6.168;2023-08-06T06:58:43;15.20;99.90
59148;DHT22;44930;52.878;6.168;2023-08-06T07:01:09;15.00;99.90
59148;DHT22;44930;52.878;6.168;2023-08-06T07:03:37;15.20;99.90
59148;DHT22;44930;52.878;6.168;2023-08-06T07:06:03;15.30;99.90
59148;DHT22;44930;52.878;6.168;2023-08-06T07:08:29;15.10;99.90
59148;DHT22;44930;52.878;6.168;2023-08-06T07:11:05;15.20;99.90
59148;DHT22;44930;52.878;6.168;2023-08-06T07:13:32;15.50;99.90
59148;DHT22;44930;52.878;6.168;2023-08-06T07:15:57;15.60;99.90
59148;DHT22;44930;52.878;6.168;2023-08-06T07:20:51;15.40;99.90
59148;DHT22;44930;52.878;6.168;2023-08-06T07:23:21;15.40;99.90
59148;DHT22;44930;52.878;6.168;2023-08-06T07:25:47;15.50;99.90
59148;DHT22;44930;52.878;6.168;2023-08-06T07:28:13;15.60;99.90
59148;DHT22;44930;52.878;6.168;2023-08-06T07:33:06;15.60;99.90
59148;DHT22;44930;52.878;6.168;2023-08-06T07:35:31;15.60;99.90
59148;DHT22;44930;52.878;6.168;2023-08-06T07:37:57;15.50;99.90
59148;DHT22;44930;52.878;6.168;2023-08-06T07:40:23;15.70;99.90
59148;DHT22;44930;52.878;6.168;2023-08-06T07:42:48;15.60;99.90
59148;DHT22;44930;52.878;6.168;2023-08-06T07:45:14;15.50;99.90
59148;DHT22;44930;52.878;6.168;2023-08-06T07:50:06;15.40;99.90
59148;DHT22;44930;52.878;6.168;2023-08-06T07:52:32;15.90;99.90
59148;DHT22;44930;52.878;6.168;2023-08-06T07:54:57;15.10;99.90
59148;DHT22;44930;52.878;6.168;2023-08-06T07:57:24;15.40;99.90
59148;DHT22;44930;52.878;6.168;2023-08-06T07:59:50;15.50;99.90
59148;DHT22;44930;52.878;6.168;2023-08-06T08:02:15;15.60;99.90
59148;DHT22;44930;52.878;6.168;2023-08-06T08:04:41;15.50;99.90
59148;DHT22;44930;52.878;6.168;2023-08-06T08:07:06;15.60;99.90
59148;DHT22;44930;52.878;6.168;2023-08-06T08:09:34;15.70;99.90
59148;DHT22;44930;52.878;6.168;2023-08-06T08:14:28;15.70;99.90
59148;DHT22;44930;52.878;6.168;2023-08-06T08:16:54;15.80;99.90
59148;DHT22;44930;52.878;6.168;2023-08-06T08:21:46;15.60;99.90
59148;DHT22;44930;52.878;6.168;2023-08-06T08:24:12;15.40;99.90
59148;DHT22;44930;52.878;6.168;2023-08-06T08:26:37;15.80;99.90
59148;DHT22;44930;52.878;6.168;2023-08-06T08:29:03;16.00;99.90
59148;DHT22;44930;52.878;6.168;2023-08-06T08:31:28;15.90;99.90
59148;DHT22;44930;52.878;6.168;2023-08-06T08:33:55;15.80;99.90
59148;DHT22;44930;52.878;6.168;2023-08-06T08:36:20;15.90;99.90
59148;DHT22;44930;52.878;6.168;2023-08-06T08:38:46;16.00;99.90
59148;DHT22;44930;52.878;6.168;2023-08-06T08:41:12;15.90;99.90
59148;DHT22;44930;52.878;6.168;2023-08-06T08:43:38;16.20;99.90
59148;DHT22;44930;52.878;6.168;2023-08-06T08:46:04;15.80;99.90
59148;DHT22;44930;52.878;6.168;2023-08-06T08:48:31;16.30;99.90
59148;DHT22;44930;52.878;6.168;2023-08-06T08:50:56;16.40;99.90
59148;DHT22;44930;52.878;6.168;2023-08-06T08:53:22;16.10;99.90
59148;DHT22;44930;52.878;6.168;2023-08-06T08:55:49;16.60;99.90
59148;DHT22;44930;52.878;6.168;2023-08-06T08:58:15;16.80;99.90
59148;DHT22;44930;52.878;6.168;2023-08-06T09:00:42;16.60;99.90
59148;DHT22;44930;52.878;6.168;2023-08-06T09:03:08;16.60;99.90
59148;DHT22;44930;52.878;6.168;2023-08-06T09:05:34;16.30;99.90
59148;DHT22;44930;52.878;6.168;2023-08-06T09:08:03;16.60;99.90
59148;DHT22;44930;52.878;6.168;2023-08-06T09:10:29;16.50;99.90
59148;DHT22;44930;52.878;6.168;2023-08-06T09:12:56;16.40;99.90
59148;DHT22;44930;52.878;6.168;2023-08-06T09:15:25;16.60;99.90
59148;DHT22;44930;52.878;6.168;2023-08-06T09:17:52;16.50;99.90
59148;DHT22;44930;52.878;6.168;2023-08-06T09:20:17;16.50;99.90
59148;DHT22;44930;52.878;6.168;2023-08-06T09:22:43;16.60;99.90
59148;DHT22;44930;52.878;6.168;2023-08-06T09:25:10;16.40;99.90
59148;DHT22;44930;52.878;6.168;2023-08-06T09:30:04;16.60;99.90
59148;DHT22;44930;52.878;6.168;2023-08-06T09:32:45;16.20;99.90
59148;DHT22;44930;52.878;6.168;2023-08-06T09:35:16;16.70;99.90
59148;DHT22;44930;52.878;6.168;2023-08-06T09:37:42;16.70;99.90
59148;DHT22;44930;52.878;6.168;2023-08-06T09:40:29;16.80;99.90
59148;DHT22;44930;52.878;6.168;2023-08-06T09:42:55;16.90;99.90
59148;DHT22;44930;52.878;6.168;2023-08-06T09:45:21;16.90;99.90
59148;DHT22;44930;52.878;6.168;2023-08-06T09:47:55;16.90;99.90
59148;DHT22;44930;52.878;6.168;2023-08-06T09:50:21;17.00;99.90
59148;DHT22;44930;52.878;6.168;2023-08-06T09:52:47;17.10;99.90
59148;DHT22;44930;52.878;6.168;2023-08-06T09:55:16;17.20;99.90
59148;DHT22;44930;52.878;6.168;2023-08-06T09:57:42;17.10;99.90
59148;DHT22;44930;52.878;6.168;2023-08-06T10:00:09;17.30;99.90
59148;DHT22;44930;52.878;6.168;2023-08-06T10:05:09;17.50;99.90
59148;DHT22;44930;52.878;6.168;2023-08-06T10:07:35;17.40;99.90
59148;DHT22;44930;52.878;6.168;2023-08-06T10:10:02;17.80;99.90
59148;DHT22;44930;52.878;6.168;2023-08-06T10:12:31;17.80;99.90
59148;DHT22;44930;52.878;6.168;2023-08-06T10:14:59;17.90;99.90
59148;DHT22;44930;52.878;6.168;2023-08-06T10:17:26;18.10;99.90
59148;DHT22;44930;52.878;6.168;2023-08-06T10:19:53;18.00;99.90
59148;DHT22;44930;52.878;6.168;2023-08-06T10:22:20;18.00;99.90
59148;DHT22;44930;52.878;6.168;2023-08-06T10:24:51;18.20;99.90
59148;DHT22;44930;52.878;6.168;2023-08-06T10:30:31;18.20;99.90
59148;DHT22;44930;52.878;6.168;2023-08-06T10:33:01;18.30;99.90
59148;DHT22;44930;52.878;6.168;2023-08-06T10:38:12;18.40;99.90
59148;DHT22;44930;52.878;6.168;2023-08-06T10:41:01;18.50;99.90
59148;DHT22;44930;52.878;6.168;2023-08-06T10:43:29;18.40;99.90
59148;DHT22;44930;52.878;6.168;2023-08-06T10:45:55;18.50;99.90
59148;DHT22;44930;52.878;6.168;2023-08-06T10:48:29;18.60;99.90
59148;DHT22;44930;52.878;6.168;2023-08-06T10:50:56;18.60;99.90
59148;DHT22;44930;52.878;6.168;2023-08-06T10:53:22;18.60;99.90
59148;DHT22;44930;52.878;6.168;2023-08-06T10:55:47;18.50;99.90
59148;DHT22;44930;52.878;6.168;2023-08-06T10:58:15;18.50;99.90
59148;DHT22;44930;52.878;6.168;2023-08-06T11:00:42;18.50;99.90
59148;DHT22;44930;52.878;6.168;2023-08-06T11:03:08;18.50;99.90
59148;DHT22;44930;52.878;6.168;2023-08-06T11:05:34;18.50;99.90
59148;DHT22;44930;52.878;6.168;2023-08-06T11:10:25;18.40;99.90
59148;DHT22;44930;52.878;6.168;2023-08-06T11:12:51;18.50;99.90
59148;DHT22;44930;52.878;6.168;2023-08-06T11:15:17;18.60;99.90
59148;DHT22;44930;52.878;6.168;2023-08-06T11:17:42;18.40;99.90
59148;DHT22;44930;52.878;6.168;2023-08-06T11:20:08;18.50;99.90
59148;DHT22;44930;52.878;6.168;2023-08-06T11:22:36;18.70;99.90
59148;DHT22;44930;52.878;6.168;2023-08-06T11:25:01;18.60;99.90
59148;DHT22;44930;52.878;6.168;2023-08-06T11:27:27;18.90;99.90
59148;DHT22;44930;52.878;6.168;2023-08-06T11:29:54;18.60;99.90
59148;DHT22;44930;52.878;6.168;2023-08-06T11:32:20;18.70;99.90
59148;DHT22;44930;52.878;6.168;2023-08-06T11:34:45;18.70;99.90
59148;DHT22;44930;52.878;6.168;2023-08-06T11:37:11;18.70;99.90
59148;DHT22;44930;52.878;6.168;2023-08-06T11:39:37;18.70;99.90
59148;DHT22;44930;52.878;6.168;2023-08-06T11:42:05;18.40;99.90
59148;DHT22;44930;52.878;6.168;2023-08-06T11:44:36;18.60;99.90
59148;DHT22;44930;52.878;6.168;2023-08-06T11:47:05;18.80;99.90
59148;DHT22;44930;52.878;6.168;2023-08-06T11:52:29;18.90;99.90
59148;DHT22;44930;52.878;6.168;2023-08-06T11:55:06;18.60;99.90
59148;DHT22;44930;52.878;6.168;2023-08-06T11:57:34;18.60;99.90
59148;DHT22;44930;52.878;6.168;2023-08-06T12:00:08;18.60;99.90
59148;DHT22;44930;52.878;6.168;2023-08-06T12:02:34;18.30;99.90
59148;DHT22;44930;52.878;6.168;2023-08-06T12:05:11;18.70;99.90
59148;DHT22;44930;52.878;6.168;2023-08-06T12:07:38;18.70;99.90
59148;DHT22;44930;52.878;6.168;2023-08-06T12:10:04;18.70;99.90
59148;DHT22;44930;52.878;6.168;2023-08-06T12:12:30;18.70;99.90
59148;DHT22;44930;52.878;6.168;2023-08-06T12:14:55;18.60;99.90
59148;DHT22;44930;52.878;6.168;2023-08-06T12:17:22;18.50;99.90
59148;DHT22;44930;52.878;6.168;2023-08-06T12:19:48;18.30;99.90
59148;DHT22;44930;52.878;6.168;2023-08-06T12:22:15;18.50;99.90
59148;DHT22;44930;52.878;6.168;2023-08-06T12:24:44;18.30;99.90
59148;DHT22;44930;52.878;6.168;2023-08-06T12:27:10;18.30;99.90
59148;DHT22;44930;52.878;6.168;2023-08-06T12:29:37;18.30;99.90
59148;DHT22;44930;52.878;6.168;2023-08-06T12:32:05;18.30;99.90
59148;DHT22;44930;52.878;6.168;2023-08-06T12:34:31;18.30;99.90
59148;DHT22;44930;52.878;6.168;2023-08-06T12:36:56;18.20;99.90
59148;DHT22;44930;52.878;6.168;2023-08-06T12:39:22;18.10;99.90
59148;DHT22;44930;52.878;6.168;2023-08-06T12:41:48;18.00;99.90
59148;DHT22;44930;52.878;6.168;2023-08-06T12:44:14;18.20;99.90
59148;DHT22;44930;52.878;6.168;2023-08-06T12:49:05;18.20;99.90
59148;DHT22;44930;52.878;6.168;2023-08-06T12:51:31;18.20;99.90
59148;DHT22;44930;52.878;6.168;2023-08-06T12:53:59;18.20;99.90
59148;DHT22;44930;52.878;6.168;2023-08-06T12:56:25;18.40;99.90
59148;DHT22;44930;52.878;6.168;2023-08-06T12:58:50;18.20;99.90
59148;DHT22;44930;52.878;6.168;2023-08-06T13:01:16;18.20;99.90
59148;DHT22;44930;52.878;6.168;2023-08-06T13:03:41;18.20;99.90
59148;DHT22;44930;52.878;6.168;2023-08-06T13:06:07;18.20;99.90
59148;DHT22;44930;52.878;6.168;2023-08-06T13:08:35;18.10;99.90
59148;DHT22;44930;52.878;6.168;2023-08-06T13:11:01;18.10;99.90
59148;DHT22;44930;52.878;6.168;2023-08-06T13:13:26;18.10;99.90
59148;DHT22;44930;52.878;6.168;2023-08-06T13:15:52;18.10;99.90
59148;DHT22;44930;52.878;6.168;2023-08-06T13:18:18;18.10;99.90
59148;DHT22;44930;52.878;6.168;2023-08-06T13:20:43;17.90;99.90
59148;DHT22;44930;52.878;6.168;2023-08-06T13:23:09;18.20;99.90
59148;DHT22;44930;52.878;6.168;2023-08-06T13:25:34;18.20;99.90
59148;DHT22;44930;52.878;6.168;2023-08-06T13:28:05;18.20;99.90
59148;DHT22;44930;52.878;6.168;2023-08-06T13:30:30;18.40;99.90
59148;DHT22;44930;52.878;6.168;2023-08-06T13:32:56;18.20;99.90
59148;DHT22;44930;52.878;6.168;2023-08-06T13:35:22;18.30;99.90
59148;DHT22;44930;52.878;6.168;2023-08-06T13:37:48;18.30;99.90
59148;DHT22;44930;52.878;6.168;2023-08-06T13:40:14;18.30;99.90
59148;DHT22;44930;52.878;6.168;2023-08-06T13:42:40;18.20;99.90
59148;DHT22;44930;52.878;6.168;2023-08-06T13:45:06;18.30;99.90
59148;DHT22;44930;52.878;6.168;2023-08-06T13:47:32;17.90;99.90
59148;DHT22;44930;52.878;6.168;2023-08-06T13:49:57;18.40;99.90
59148;DHT22;44930;52.878;6.168;2023-08-06T13:52:26;18.20;99.90
59148;DHT22;44930;52.878;6.168;2023-08-06T13:54:52;18.10;99.90
59148;DHT22;44930;52.878;6.168;2023-08-06T13:57:17;17.90;99.90
59148;DHT22;44930;52.878;6.168;2023-08-06T13:59:43;17.60;99.90
59148;DHT22;44930;52.878;6.168;2023-08-06T14:04:35;17.10;99.90
59148;DHT22;44930;52.878;6.168;2023-08-06T14:07:03;17.20;99.90
59148;DHT22;44930;52.878;6.168;2023-08-06T14:09:28;16.90;99.90
59148;DHT22;44930;52.878;6.168;2023-08-06T14:11:54;17.00;99.90
59148;DHT22;44930;52.878;6.168;2023-08-06T14:14:19;17.10;99.90
59148;DHT22;44930;52.878;6.168;2023-08-06T14:16:51;16.90;99.90
59148;DHT22;44930;52.878;6.168;2023-08-06T14:19:17;16.90;99.90
59148;DHT22;44930;52.878;6.168;2023-08-06T14:21:42;16.90;99.90
59148;DHT22;44930;52.878;6.168;2023-08-06T14:24:08;16.80;99.90
59148;DHT22;44930;52.878;6.168;2023-08-06T14:29:00;16.40;99.90
59148;DHT22;44930;52.878;6.168;2023-08-06T14:31:26;16.80;99.90
59148;DHT22;44930;52.878;6.168;2023-08-06T14:33:51;16.70;99.90
59148;DHT22;44930;52.878;6.168;2023-08-06T14:36:17;16.40;99.90
59148;DHT22;44930;52.878;6.168;2023-08-06T14:38:42;16.10;99.90
59148;DHT22;44930;52.878;6.168;2023-08-06T14:41:08;16.50;99.90
59148;DHT22;44930;52.878;6.168;2023-08-06T14:43:33;16.40;99.90
59148;DHT22;44930;52.878;6.168;2023-08-06T14:45:59;16.50;99.90
59148;DHT22;44930;52.878;6.168;2023-08-06T14:48:25;16.40;99.90
59148;DHT22;44930;52.878;6.168;2023-08-06T14:50:50;16.40;99.90
59148;DHT22;44930;52.878;6.168;2023-08-06T14:53:16;16.00;99.90
59148;DHT22;44930;52.878;6.168;2023-08-06T14:55:41;16.40;99.90
59148;DHT22;44930;52.878;6.168;2023-08-06T14:58:07;16.20;99.90
59148;DHT22;44930;52.878;6.168;2023-08-06T15:00:32;16.60;99.90
59148;DHT22;44930;52.878;6.168;2023-08-06T15:02:58;16.30;99.90
59148;DHT22;44930;52.878;6.168;2023-08-06T15:05:24;16.30;99.90
59148;DHT22;44930;52.878;6.168;2023-08-06T15:07:50;16.30;99.90
59148;DHT22;44930;52.878;6.168;2023-08-06T15:10:18;16.10;99.90
59148;DHT22;44930;52.878;6.168;2023-08-06T15:12:44;16.20;99.90
59148;DHT22;44930;52.878;6.168;2023-08-06T15:15:10;15.80;99.90
59148;DHT22;44930;52.878;6.168;2023-08-06T15:17:36;16.20;99.90
59148;DHT22;44930;52.878;6.168;2023-08-06T15:20:02;16.10;99.90
59148;DHT22;44930;52.878;6.168;2023-08-06T15:22:28;16.20;99.90
59148;DHT22;44930;52.878;6.168;2023-08-06T15:24:57;16.30;99.90
59148;DHT22;44930;52.878;6.168;2023-08-06T15:27:23;16.20;99.90
59148;DHT22;44930;52.878;6.168;2023-08-06T15:29:49;16.50;99.90
59148;DHT22;44930;52.878;6.168;2023-08-06T15:32:14;15.90;99.90
59148;DHT22;44930;52.878;6.168;2023-08-06T15:34:40;16.30;99.90
59148;DHT22;44930;52.878;6.168;2023-08-06T15:37:06;16.60;99.90
59148;DHT22;44930;52.878;6.168;2023-08-06T15:39:33;16.00;99.90
59148;DHT22;44930;52.878;6.168;2023-08-06T15:41:59;16.30;99.90
59148;DHT22;44930;52.878;6.168;2023-08-06T15:46:51;16.30;99.90
59148;DHT22;44930;52.878;6.168;2023-08-06T15:49:16;16.30;99.90
59148;DHT22;44930;52.878;6.168;2023-08-06T15:51:42;16.40;99.90
59148;DHT22;44930;52.878;6.168;2023-08-06T15:54:08;16.40;99.90
59148;DHT22;44930;52.878;6.168;2023-08-06T15:56:33;16.30;99.90
59148;DHT22;44930;52.878;6.168;2023-08-06T16:01:47;16.10;99.90
59148;DHT22;44930;52.878;6.168;2023-08-06T16:04:13;16.40;99.90
59148;DHT22;44930;52.878;6.168;2023-08-06T16:06:38;16.50;99.90
59148;DHT22;44930;52.878;6.168;2023-08-06T16:09:04;16.30;99.90
59148;DHT22;44930;52.878;6.168;2023-08-06T16:11:29;16.30;99.90
59148;DHT22;44930;52.878;6.168;2023-08-06T16:13:55;16.10;99.90
59148;DHT22;44930;52.878;6.168;2023-08-06T16:16:21;15.90;99.90
59148;DHT22;44930;52.878;6.168;2023-08-06T16:18:46;16.20;99.90
59148;DHT22;44930;52.878;6.168;2023-08-06T16:21:12;16.20;99.90
59148;DHT22;44930;52.878;6.168;2023-08-06T16:23:38;16.20;99.90
59148;DHT22;44930;52.878;6.168;2023-08-06T16:26:03;16.60;99.90
59148;DHT22;44930;52.878;6.168;2023-08-06T16:28:29;16.20;99.90